Time;durP1;ratioP1;P1;durP2;ratioP2;P2;SDS_P1;SDS_P2;PMS_P1;PMS_P2;Temp;Humidity;BMP_temperature;BMP_pressure;BME280_temperature;BME280_humidity;BME280_pressure;Samples;Min_cycle;Max_cycle;Signal;HPM_P1;HPM_P2
2022/11/13 00:00:47;;;;;;;;;;;;;;;;;;5062741;28;5037;-65
2022/11/13 00:03:13;;;;;;;;;;;;;;;;;;5058325;28;5121;-65
2022/11/13 00:05:38;;;;;;;;;;;;;;;;;;5047736;28;5022;-61
2022/11/13 00:08:03;;;;;;;;;;;;;;;;;;5047588;28;5304;-61
2022/11/13 00:10:28;;;;;;;;;;;;;;;;;;5052503;28;1077;-60
2022/11/13 00:12:54;;;;;;;;;;;;;;;;;;5064531;28;4422;-62
2022/11/13 00:15:20;;;;;;;;;;;;;;;;;;5047385;28;5082;-60
2022/11/13 00:17:45;;;;;;;;;;;;;;;;;;5064389;28;4481;-62
2022/11/13 00:20:10;;;;;;;;;;;;;;;;;;5048071;28;4540;-57
2022/11/13 00:22:35;;;;;;;;;;;;;;;;;;5067459;28;5198;-62
2022/11/13 00:25:01;;;;;;;;;;;;;;;;;;5068530;28;1989;-62
2022/11/13 00:27:28;;;;;;;;;;;;;;;;;;5068555;28;5109;-63
2022/11/13 00:29:53;;;;;;;;;;;;;;;;;;5066627;28;4555;-62
2022/11/13 00:32:19;;;;;;;;;;;;;;;;;;5067210;28;4992;-63
2022/11/13 00:34:44;;;;;;;;;;;;;;;;;;5055211;28;4473;-62
2022/11/13 00:37:10;;;;;;;;;;;;;;;;;;5060043;28;5031;-61
2022/11/13 00:39:35;;;;;;;;;;;;;;;;;;5068409;28;5267;-63
2022/11/13 00:42:00;;;;;;;;;;;;;;;;;;5068322;28;4653;-62
2022/11/13 00:44:25;;;;;;;;;;;;;;;;;;5052168;28;5044;-57
2022/11/13 00:46:51;;;;;;;;;;;;;;;;;;5061315;28;5182;-63
2022/11/13 00:49:16;;;;;;;;;;;;;;;;;;5069024;28;1024;-62
2022/11/13 00:51:41;;;;;;;;;;;;;;;;;;5067855;28;5424;-63
2022/11/13 00:54:07;;;;;;;;;;;;;;;;;;5068305;28;5062;-62
2022/11/13 00:56:32;;;;;;;;;;;;;;;;;;5067942;28;4638;-63
2022/11/13 00:58:57;;;;;;;;;;;;;;;;;;5068226;28;5063;-62
2022/11/13 01:01:22;;;;;;;;;;;;;;;;;;5067730;28;1490;-63
2022/11/13 01:03:48;;;;;;;;;;;;;;;;;;5049345;28;4584;-61
2022/11/13 01:06:13;;;;;;;;;;;;;;;;;;5067905;28;5200;-62
2022/11/13 01:08:38;;;;;;;;;;;;;;;;;;5071961;28;4586;-61
2022/11/13 01:11:14;;;;;;;;;;;;;;;;;;5065190;28;4710;-63
2022/11/13 01:13:40;;;;;;;;;;;;;;;;;;5058183;28;4630;-63
2022/11/13 01:16:06;;;;;;;;;;;;;;;;;;5063804;28;1667;-61
2022/11/13 01:18:31;;;;;;;;;;;;;;;;;;5069900;28;4540;-60
2022/11/13 01:21:07;;;;;;;;;;;;;;;;;;5071047;28;5200;-60
2022/11/13 01:23:33;;;;;;;;;;;;;;;;;;5070524;28;5057;-59
2022/11/13 01:26:05;;;;;;;;;;;;;;;;;;5069904;28;4621;-62
2022/11/13 01:28:30;;;;;;;;;;;;;;;;;;5071419;28;5007;-60
2022/11/13 01:30:55;;;;;;;;;;;;;;;;;;5069902;28;1698;-61
2022/11/13 01:33:21;;;;;;;;;;;;;;;;;;5071187;28;4587;-61
2022/11/13 01:35:46;;;;;;;;;;;;;;;;;;5053307;28;4818;-61
2022/11/13 01:38:11;;;;;;;;;;;;;;;;;;5062774;28;5006;-60
2022/11/13 01:40:43;;;;;;;;;;;;;;;;;;5052507;28;5276;-60
2022/11/13 01:43:20;;;;;;;;;;;;;;;;;;5052322;28;1655;-57
2022/11/13 01:45:58;;;;;;;;;;;;;;;;;;5050912;28;5516;-61
2022/11/13 01:48:39;;;;;;;;;;;;;;;;;;5051365;28;5069;-61
2022/11/13 01:51:07;;;;;;;;;;;;;;;;;;5051175;28;4819;-61
2022/11/13 01:53:32;;;;;;;;;;;;;;;;;;5054289;28;5125;-61
2022/11/13 01:55:58;;;;;;;;;;;;;;;;;;5071116;28;4844;-61
2022/11/13 01:58:23;;;;;;;;;;;;;;;;;;5071616;28;1067;-62
2022/11/13 02:00:48;;;;;;;;;;;;;;;;;;5070994;28;4860;-61
2022/11/13 02:03:13;;;;;;;;;;;;;;;;;;5070947;28;4831;-62
2022/11/13 02:05:39;;;;;;;;;;;;;;;;;;5071227;28;4951;-59
2022/11/13 02:08:04;;;;;;;;;;;;;;;;;;5069690;28;4665;-62
2022/11/13 02:10:29;;;;;;;;;;;;;;;;;;5071447;28;1158;-61
2022/11/13 02:12:54;;;;;;;;;;;;;;;;;;5050493;28;5035;-61
2022/11/13 02:15:22;;;;;;;;;;;;;;;;;;5050917;28;4499;-62
2022/11/13 02:17:49;;;;;;;;;;;;;;;;;;5032449;28;4906;-60
2022/11/13 02:20:14;;;;;;;;;;;;;;;;;;5032753;28;4993;-62
2022/11/13 02:22:44;;;;;;;;;;;;;;;;;;5050875;28;4375;-61
2022/11/13 02:25:09;;;;;;;;;;;;;;;;;;5052585;28;1918;-60
2022/11/13 02:27:47;;;;;;;;;;;;;;;;;;5052263;28;4910;-62
2022/11/13 02:30:13;;;;;;;;;;;;;;;;;;5051116;28;4941;-60
2022/11/13 02:32:44;;;;;;;;;;;;;;;;;;5070935;28;4589;-55
2022/11/13 02:35:10;;;;;;;;;;;;;;;;;;5037580;28;5008;-61
2022/11/13 02:37:35;;;;;;;;;;;;;;;;;;5050991;28;5202;-62
2022/11/13 02:40:01;;;;;;;;;;;;;;;;;;5071064;28;950;-62
2022/11/13 02:42:26;;;;;;;;;;;;;;;;;;5069911;28;4897;-62
2022/11/13 02:44:51;;;;;;;;;;;;;;;;;;5047661;28;4862;-62
2022/11/13 02:47:17;;;;;;;;;;;;;;;;;;5050077;28;4821;-61
2022/11/13 02:49:42;;;;;;;;;;;;;;;;;;5048801;28;5163;-62
2022/11/13 02:52:07;;;;;;;;;;;;;;;;;;5050366;28;1723;-61
2022/11/13 02:54:32;;;;;;;;;;;;;;;;;;5070068;28;5224;-61
2022/11/13 02:56:58;;;;;;;;;;;;;;;;;;5070119;28;4941;-61
2022/11/13 02:59:23;;;;;;;;;;;;;;;;;;5070027;28;5443;-61
2022/11/13 03:01:48;;;;;;;;;;;;;;;;;;5051579;28;4981;-60
2022/11/13 03:04:13;;;;;;;;;;;;;;;;;;5070462;28;1913;-61
2022/11/13 03:06:38;;;;;;;;;;;;;;;;;;5069701;28;5107;-60
2022/11/13 03:09:04;;;;;;;;;;;;;;;;;;5068282;28;4937;-62
2022/11/13 03:11:29;;;;;;;;;;;;;;;;;;5056625;28;4966;-62
2022/11/13 03:13:54;;;;;;;;;;;;;;;;;;5038110;28;5256;-62
2022/11/13 03:16:19;;;;;;;;;;;;;;;;;;5050314;28;1169;-62
2022/11/13 03:18:45;;;;;;;;;;;;;;;;;;5049801;28;5011;-62
2022/11/13 03:21:11;;;;;;;;;;;;;;;;;;5049681;28;5007;-61
2022/11/13 03:23:36;;;;;;;;;;;;;;;;;;5047718;28;4858;-62
2022/11/13 03:26:05;;;;;;;;;;;;;;;;;;5068568;28;5052;-63
2022/11/13 03:28:30;;;;;;;;;;;;;;;;;;5069652;28;4922;-62
2022/11/13 03:30:56;;;;;;;;;;;;;;;;;;5067597;28;1221;-62
2022/11/13 03:33:21;;;;;;;;;;;;;;;;;;5063974;28;4830;-62
2022/11/13 03:35:46;;;;;;;;;;;;;;;;;;5049321;28;5349;-63
2022/11/13 03:38:11;;;;;;;;;;;;;;;;;;5052957;28;4986;-61
2022/11/13 03:40:37;;;;;;;;;;;;;;;;;;5049632;28;4818;-61
2022/11/13 03:43:02;;;;;;;;;;;;;;;;;;5046332;28;1729;-62
2022/11/13 03:45:27;;;;;;;;;;;;;;;;;;5064932;28;5232;-61
2022/11/13 03:47:52;;;;;;;;;;;;;;;;;;5069348;28;4954;-62
2022/11/13 03:50:18;;;;;;;;;;;;;;;;;;5069463;28;4951;-62
2022/11/13 03:52:43;;;;;;;;;;;;;;;;;;5069562;28;4851;-62
2022/11/13 03:55:08;;;;;;;;;;;;;;;;;;5069454;28;1397;-62
2022/11/13 03:57:33;;;;;;;;;;;;;;;;;;5069100;28;4940;-61
2022/11/13 03:59:59;;;;;;;;;;;;;;;;;;5067619;28;5031;-62
2022/11/13 04:02:24;;;;;;;;;;;;;;;;;;5068814;28;5013;-61
2022/11/13 04:04:50;;;;;;;;;;;;;;;;;;5068963;28;5053;-61
2022/11/13 04:07:15;;;;;;;;;;;;;;;;;;5069555;28;1028;-62
2022/11/13 04:09:40;;;;;;;;;;;;;;;;;;5068814;28;4793;-62
2022/11/13 04:12:06;;;;;;;;;;;;;;;;;;5068975;28;4930;-61
2022/11/13 04:14:31;;;;;;;;;;;;;;;;;;5029007;28;4647;-61
2022/11/13 04:16:56;;;;;;;;;;;;;;;;;;5014278;28;5063;-62
2022/11/13 04:19:21;;;;;;;;;;;;;;;;;;5049397;28;1038;-62
2022/11/13 04:21:47;;;;;;;;;;;;;;;;;;5047455;28;5167;-61
2022/11/13 04:24:12;;;;;;;;;;;;;;;;;;5048374;28;5086;-61
2022/11/13 04:26:37;;;;;;;;;;;;;;;;;;5048753;28;4704;-61
2022/11/13 04:29:02;;;;;;;;;;;;;;;;;;5063527;28;4992;-62
2022/11/13 04:31:28;;;;;;;;;;;;;;;;;;5050152;28;2158;-61
2022/11/13 04:33:53;;;;;;;;;;;;;;;;;;5058096;28;4409;-61
2022/11/13 04:36:18;;;;;;;;;;;;;;;;;;5068804;28;5077;-62
2022/11/13 04:38:43;;;;;;;;;;;;;;;;;;5068361;28;5119;-61
2022/11/13 04:43:54;;;;;;;;;;;;;;;;;;5044198;28;5110;-61
2022/11/13 04:46:19;;;;;;;;;;;;;;;;;;5063476;28;1914;-62
2022/11/13 04:48:44;;;;;;;;;;;;;;;;;;5070997;28;4966;-61
2022/11/13 04:51:09;;;;;;;;;;;;;;;;;;5057981;28;4932;-62
2022/11/13 04:53:34;;;;;;;;;;;;;;;;;;5049047;28;4511;-62
2022/11/13 04:56:00;;;;;;;;;;;;;;;;;;5051002;28;4982;-62
2022/11/13 04:58:25;;;;;;;;;;;;;;;;;;5052620;28;1163;-60
2022/11/13 05:00:50;;;;;;;;;;;;;;;;;;5051464;28;5151;-61
2022/11/13 05:03:15;;;;;;;;;;;;;;;;;;5039634;28;5791;-61
2022/11/13 05:05:41;;;;;;;;;;;;;;;;;;5032433;28;5680;-61
2022/11/13 05:08:06;;;;;;;;;;;;;;;;;;5046430;28;5152;-60
2022/11/13 05:10:31;;;;;;;;;;;;;;;;;;5046729;28;4474;-61
2022/11/13 05:12:57;;;;;;;;;;;;;;;;;;5014458;28;1694;-61
2022/11/13 05:15:22;;;;;;;;;;;;;;;;;;5047937;28;4828;-61
2022/11/13 05:17:47;;;;;;;;;;;;;;;;;;5051788;28;4464;-61
2022/11/13 05:20:13;;;;;;;;;;;;;;;;;;5051939;28;4909;-60
2022/11/13 05:22:38;;;;;;;;;;;;;;;;;;5051754;28;5163;-62
2022/11/13 05:25:03;;;;;;;;;;;;;;;;;;5051626;28;1983;-61
2022/11/13 05:27:29;;;;;;;;;;;;;;;;;;5036496;28;5131;-61
2022/11/13 05:29:54;;;;;;;;;;;;;;;;;;5044454;28;5083;-61
2022/11/13 05:32:19;;;;;;;;;;;;;;;;;;5049482;28;5077;-61
2022/11/13 05:34:45;;;;;;;;;;;;;;;;;;5050443;28;5184;-61
2022/11/13 05:37:10;;;;;;;;;;;;;;;;;;5052097;28;5142;-61
2022/11/13 05:39:35;;;;;;;;;;;;;;;;;;5051880;28;4447;-61
2022/11/13 05:42:01;;;;;;;;;;;;;;;;;;5051131;28;4899;-61
2022/11/13 05:44:26;;;;;;;;;;;;;;;;;;5035537;28;5161;-61
2022/11/13 05:46:51;;;;;;;;;;;;;;;;;;5048490;28;4992;-60
2022/11/13 05:49:16;;;;;;;;;;;;;;;;;;5051919;28;1017;-60
2022/11/13 05:51:42;;;;;;;;;;;;;;;;;;5051171;28;4999;-60
2022/11/13 05:54:07;;;;;;;;;;;;;;;;;;5050308;28;5207;-57
2022/11/13 05:56:33;;;;;;;;;;;;;;;;;;5051193;28;5016;-60
2022/11/13 05:58:58;;;;;;;;;;;;;;;;;;5051331;28;5147;-60
2022/11/13 06:01:25;;;;;;;;;;;;;;;;;;5050249;28;1596;-60
2022/11/13 06:03:50;;;;;;;;;;;;;;;;;;5050938;28;4912;-60
2022/11/13 06:06:17;;;;;;;;;;;;;;;;;;5051281;28;5197;-61
2022/11/13 06:08:42;;;;;;;;;;;;;;;;;;5051056;28;4877;-60
2022/11/13 06:11:08;;;;;;;;;;;;;;;;;;5040927;28;4860;-60
2022/11/13 06:13:34;;;;;;;;;;;;;;;;;;5031738;28;5027;-61
2022/11/13 06:16:03;;;;;;;;;;;;;;;;;;5045099;28;1593;-60
2022/11/13 06:18:29;;;;;;;;;;;;;;;;;;5050869;28;4370;-60
2022/11/13 06:20:54;;;;;;;;;;;;;;;;;;5050812;28;5026;-60
2022/11/13 06:23:19;;;;;;;;;;;;;;;;;;5038913;28;5249;-61
2022/11/13 06:25:44;;;;;;;;;;;;;;;;;;5030122;28;4581;-61
2022/11/13 06:28:10;;;;;;;;;;;;;;;;;;5031059;28;963;-61
2022/11/13 06:30:35;;;;;;;;;;;;;;;;;;5040164;28;4913;-61
2022/11/13 06:33:00;;;;;;;;;;;;;;;;;;5048089;28;5022;-61
2022/11/13 06:35:26;;;;;;;;;;;;;;;;;;5030237;28;4816;-61
2022/11/13 06:37:52;;;;;;;;;;;;;;;;;;5037860;28;5275;-59
2022/11/13 06:40:18;;;;;;;;;;;;;;;;;;5050914;28;1331;-60
2022/11/13 06:42:43;;;;;;;;;;;;;;;;;;5049644;28;4902;-59
2022/11/13 06:45:08;;;;;;;;;;;;;;;;;;5041784;28;4784;-61
2022/11/13 06:47:34;;;;;;;;;;;;;;;;;;5049956;28;5040;-61
2022/11/13 06:49:59;;;;;;;;;;;;;;;;;;5048778;28;4646;-61
2022/11/13 06:52:24;;;;;;;;;;;;;;;;;;5050071;28;1661;-61
2022/11/13 06:54:49;;;;;;;;;;;;;;;;;;5049881;28;4812;-61
2022/11/13 06:57:15;;;;;;;;;;;;;;;;;;5049084;28;5049;-60
2022/11/13 06:59:42;;;;;;;;;;;;;;;;;;5046641;28;5353;-61
2022/11/13 07:02:07;;;;;;;;;;;;;;;;;;5049016;28;5342;-61
2022/11/13 07:04:33;;;;;;;;;;;;;;;;;;5048360;28;5030;-62
2022/11/13 07:06:58;;;;;;;;;;;;;;;;;;5049865;28;1698;-60
2022/11/13 07:09:23;;;;;;;;;;;;;;;;;;5049548;28;5053;-60
2022/11/13 07:11:48;;;;;;;;;;;;;;;;;;5049320;28;5162;-60
2022/11/13 07:14:13;;;;;;;;;;;;;;;;;;5037565;28;5657;-58
2022/11/13 07:16:39;;;;;;;;;;;;;;;;;;5049204;28;5504;-61
2022/11/13 07:19:04;;;;;;;;;;;;;;;;;;5042922;28;2114;-61
2022/11/13 07:21:29;;;;;;;;;;;;;;;;;;5029630;28;4943;-60
2022/11/13 07:23:54;;;;;;;;;;;;;;;;;;5028838;28;5265;-61
2022/11/13 07:26:20;;;;;;;;;;;;;;;;;;5029401;28;4974;-61
2022/11/13 07:28:45;;;;;;;;;;;;;;;;;;5029333;28;5042;-61
2022/11/13 07:31:11;;;;;;;;;;;;;;;;;;5044927;28;1542;-61
2022/11/13 07:33:36;;;;;;;;;;;;;;;;;;5046400;28;4437;-60
2022/11/13 07:36:01;;;;;;;;;;;;;;;;;;5048993;28;4981;-61
2022/11/13 07:38:27;;;;;;;;;;;;;;;;;;5048882;28;5075;-61
2022/11/13 07:40:52;;;;;;;;;;;;;;;;;;5048720;28;5227;-61
2022/11/13 07:43:17;;;;;;;;;;;;;;;;;;5044782;28;1528;-61
2022/11/13 07:45:43;;;;;;;;;;;;;;;;;;5044493;28;4805;-60
2022/11/13 07:48:08;;;;;;;;;;;;;;;;;;5030505;28;5201;-62
2022/11/13 07:50:34;;;;;;;;;;;;;;;;;;5048740;28;4591;-62
2022/11/13 07:53:00;;;;;;;;;;;;;;;;;;5048648;28;5331;-61
2022/11/13 07:55:26;;;;;;;;;;;;;;;;;;5049072;28;864;-62
2022/11/13 07:57:53;;;;;;;;;;;;;;;;;;5048567;28;4421;-62
2022/11/13 08:00:19;;;;;;;;;;;;;;;;;;5047140;28;5178;-62
2022/11/13 08:02:46;;;;;;;;;;;;;;;;;;5048503;28;5056;-62
2022/11/13 08:05:11;;;;;;;;;;;;;;;;;;5048703;28;4537;-61
2022/11/13 08:07:37;;;;;;;;;;;;;;;;;;5048500;28;5053;-61
2022/11/13 08:10:02;;;;;;;;;;;;;;;;;;5047766;28;945;-60
2022/11/13 08:12:27;;;;;;;;;;;;;;;;;;5028928;28;5132;-61
2022/11/13 08:14:52;;;;;;;;;;;;;;;;;;5027730;28;5296;-61
2022/11/13 08:17:18;;;;;;;;;;;;;;;;;;5028176;28;5924;-60
2022/11/13 08:19:43;;;;;;;;;;;;;;;;;;5028622;28;4817;-62
2022/11/13 08:22:08;;;;;;;;;;;;;;;;;;5029046;28;893;-61
2022/11/13 08:24:34;;;;;;;;;;;;;;;;;;5028190;28;5569;-60
2022/11/13 08:27:00;;;;;;;;;;;;;;;;;;5028438;28;5217;-60
2022/11/13 08:29:25;;;;;;;;;;;;;;;;;;5042862;28;4661;-61
2022/11/13 08:31:51;;;;;;;;;;;;;;;;;;5046343;28;5338;-61
2022/11/13 08:34:16;;;;;;;;;;;;;;;;;;5047090;28;1381;-61
2022/11/13 08:36:41;;;;;;;;;;;;;;;;;;5048299;28;5410;-60
2022/11/13 08:39:07;;;;;;;;;;;;;;;;;;5047807;28;5093;-60
2022/11/13 08:41:33;;;;;;;;;;;;;;;;;;5048100;28;4437;-61
2022/11/13 08:43:58;;;;;;;;;;;;;;;;;;5044315;28;5123;-60
2022/11/13 08:46:23;;;;;;;;;;;;;;;;;;5047196;28;1906;-60
2022/11/13 08:48:48;;;;;;;;;;;;;;;;;;5048171;28;5117;-60
2022/11/13 08:51:14;;;;;;;;;;;;;;;;;;5047964;28;5010;-61
2022/11/13 08:53:39;;;;;;;;;;;;;;;;;;5047819;28;5053;-60
2022/11/13 08:56:04;;;;;;;;;;;;;;;;;;5048161;28;5071;-60
2022/11/13 08:58:29;;;;;;;;;;;;;;;;;;5048576;28;1376;-61
2022/11/13 09:00:58;;;;;;;;;;;;;;;;;;5032850;28;4839;-57
2022/11/13 09:03:23;;;;;;;;;;;;;;;;;;5035383;28;5133;-61
2022/11/13 09:05:49;;;;;;;;;;;;;;;;;;5042695;28;5386;-61
2022/11/13 09:08:14;;;;;;;;;;;;;;;;;;5034218;28;5313;-61
2022/11/13 09:10:39;;;;;;;;;;;;;;;;;;5038910;28;4524;-61
2022/11/13 09:13:04;;;;;;;;;;;;;;;;;;5036254;28;2180;-60
2022/11/13 09:15:30;;;;;;;;;;;;;;;;;;5027881;28;4583;-61
2022/11/13 09:17:58;;;;;;;;;;;;;;;;;;5040942;28;5522;-59
2022/11/13 09:20:24;;;;;;;;;;;;;;;;;;5038422;28;5036;-65
2022/11/13 09:22:55;;;;;;;;;;;;;;;;;;5045008;28;4860;-65
2022/11/13 09:25:20;;;;;;;;;;;;;;;;;;5046397;28;2009;-63
2022/11/13 09:27:50;;;;;;;;;;;;;;;;;;5035139;28;5061;-67
2022/11/13 09:30:16;;;;;;;;;;;;;;;;;;5039959;28;4441;-68
2022/11/13 09:32:41;;;;;;;;;;;;;;;;;;5050727;28;4601;-67
2022/11/13 09:35:06;;;;;;;;;;;;;;;;;;5037005;28;4969;-68
2022/11/13 09:37:33;;;;;;;;;;;;;;;;;;5044815;28;5202;-67
2022/11/13 09:39:59;;;;;;;;;;;;;;;;;;5047937;28;1764;-68
2022/11/13 09:42:24;;;;;;;;;;;;;;;;;;5051241;28;4995;-68
2022/11/13 09:44:51;;;;;;;;;;;;;;;;;;5045329;28;5051;-66
2022/11/13 09:47:24;;;;;;;;;;;;;;;;;;5049930;28;4860;-68
2022/11/13 09:50:09;;;;;;;;;;;;;;;;;;5033246;28;5090;-68
2022/11/13 09:52:35;;;;;;;;;;;;;;;;;;5050581;28;4586;-68
2022/11/13 09:55:00;;;;;;;;;;;;;;;;;;5051919;28;1096;-67
2022/11/13 09:57:34;;;;;;;;;;;;;;;;;;5048001;28;4514;-68
2022/11/13 10:00:05;;;;;;;;;;;;;;;;;;5048520;28;4961;-67
2022/11/13 10:02:49;;;;;;;;;;;;;;;;;;5039338;28;5053;-67
2022/11/13 10:05:22;;;;;;;;;;;;;;;;;;5041107;28;4463;-67
2022/11/13 10:08:06;;;;;;;;;;;;;;;;;;5043643;28;5676;-67
2022/11/13 10:10:32;;;;;;;;;;;;;;;;;;5038337;28;4643;-66
2022/11/13 10:12:57;;;;;;;;;;;;;;;;;;5044648;28;1636;-65
2022/11/13 10:15:22;;;;;;;;;;;;;;;;;;5034524;28;5004;-62
2022/11/13 10:17:48;;;;;;;;;;;;;;;;;;5038828;28;5099;-60
2022/11/13 10:20:15;;;;;;;;;;;;;;;;;;5045348;28;4488;-60
2022/11/13 10:22:41;;;;;;;;;;;;;;;;;;5046552;28;4596;-60
2022/11/13 10:25:11;;;;;;;;;;;;;;;;;;5036376;28;3192;-60
2022/11/13 10:27:37;;;;;;;;;;;;;;;;;;5041367;28;5123;-60
2022/11/13 10:30:02;;;;;;;;;;;;;;;;;;5043269;28;4995;-61
2022/11/13 10:32:30;;;;;;;;;;;;;;;;;;5038553;28;4529;-60
2022/11/13 10:35:11;;;;;;;;;;;;;;;;;;5037703;28;4608;-60
2022/11/13 10:38:15;;;;;;;;;;;;;;;;;;5035894;28;5049;-62
2022/11/13 10:40:40;;;;;;;;;;;;;;;;;;4956239;28;4854;-60
2022/11/13 10:43:14;;;;;;;;;;;;;;;;;;4951281;28;2014;-61
2022/11/13 10:45:39;;;;;;;;;;;;;;;;;;4984278;28;4999;-61
2022/11/13 10:48:04;;;;;;;;;;;;;;;;;;5037521;28;5566;-61
2022/11/13 10:50:30;;;;;;;;;;;;;;;;;;5050016;28;5023;-61
2022/11/13 10:52:56;;;;;;;;;;;;;;;;;;5041858;28;4645;-61
2022/11/13 10:55:24;;;;;;;;;;;;;;;;;;5026570;28;1591;-62
2022/11/13 10:57:59;;;;;;;;;;;;;;;;;;5038070;28;4986;-62
2022/11/13 11:00:34;;;;;;;;;;;;;;;;;;5047903;28;4899;-63
2022/11/13 11:03:00;;;;;;;;;;;;;;;;;;5048428;28;5206;-62
2022/11/13 11:05:25;;;;;;;;;;;;;;;;;;5038211;28;4954;-62
2022/11/13 11:07:52;;;;;;;;;;;;;;;;;;5048226;28;4878;-61
2022/11/13 11:12:14;;;;;;;;;;;;;;;;;;5039993;28;1592;-64
2022/11/13 11:13:22;;;;;;;;;;;;;;;;;;5025821;28;4449;-67
2022/11/13 11:15:49;;;;;;;;;;;;;;;;;;5026650;28;5110;-62
2022/11/13 11:18:21;;;;;;;;;;;;;;;;;;5041797;28;5074;-61
2022/11/13 11:20:47;;;;;;;;;;;;;;;;;;5037882;28;4915;-61
2022/11/13 11:23:15;;;;;;;;;;;;;;;;;;5046483;28;5131;-61
2022/11/13 11:25:42;;;;;;;;;;;;;;;;;;5045863;28;5167;-61
2022/11/13 11:28:27;;;;;;;;;;;;;;;;;;5045203;28;1433;-61
2022/11/13 11:30:55;;;;;;;;;;;;;;;;;;5033607;28;5228;-62
2022/11/13 11:33:31;;;;;;;;;;;;;;;;;;5036614;28;4690;-61
2022/11/13 11:36:17;;;;;;;;;;;;;;;;;;5033995;28;5099;-61
2022/11/13 11:38:55;;;;;;;;;;;;;;;;;;5033449;28;5100;-61
2022/11/13 11:41:22;;;;;;;;;;;;;;;;;;5041269;28;4840;-61
2022/11/13 11:43:50;;;;;;;;;;;;;;;;;;5037874;28;4975;-62
2022/11/13 11:46:21;;;;;;;;;;;;;;;;;;5032631;28;1968;-63
2022/11/13 11:48:46;;;;;;;;;;;;;;;;;;5032536;28;4706;-68
2022/11/13 11:51:24;;;;;;;;;;;;;;;;;;5036835;28;5626;-65
2022/11/13 11:54:08;;;;;;;;;;;;;;;;;;5043206;28;5140;-66
2022/11/13 11:56:37;;;;;;;;;;;;;;;;;;5045826;28;4979;-64
2022/11/13 11:59:18;;;;;;;;;;;;;;;;;;5047405;28;4957;-65
2022/11/13 12:01:54;;;;;;;;;;;;;;;;;;5041966;28;4652;-64
2022/11/13 12:04:52;;;;;;;;;;;;;;;;;;5047074;28;1237;-65
2022/11/13 12:07:56;;;;;;;;;;;;;;;;;;4986707;28;5039;-66
2022/11/13 12:10:26;;;;;;;;;;;;;;;;;;4979887;28;4976;-65
2022/11/13 12:12:51;;;;;;;;;;;;;;;;;;4965181;28;5231;-66
2022/11/13 12:15:16;;;;;;;;;;;;;;;;;;5001941;28;5405;-66
2022/11/13 12:17:44;;;;;;;;;;;;;;;;;;5047455;28;5758;-65
2022/11/13 12:20:16;;;;;;;;;;;;;;;;;;5035258;28;5006;-66
2022/11/13 12:22:46;;;;;;;;;;;;;;;;;;5042451;28;5510;-66
2022/11/13 12:25:17;;;;;;;;;;;;;;;;;;5046407;28;1918;-66
2022/11/13 12:27:45;;;;;;;;;;;;;;;;;;5047187;28;4635;-65
2022/11/13 12:30:20;;;;;;;;;;;;;;;;;;5037588;28;4976;-60
2022/11/13 12:33:01;;;;;;;;;;;;;;;;;;5035443;28;5068;-60
2022/11/13 12:35:26;;;;;;;;;;;;;;;;;;5046976;28;5345;-58
2022/11/13 12:37:56;;;;;;;;;;;;;;;;;;5044079;28;5061;-58
2022/11/13 12:40:44;;;;;;;;;;;;;;;;;;5046632;28;1729;-61
2022/11/13 12:43:19;;;;;;;;;;;;;;;;;;5031785;28;4645;-59
2022/11/13 12:46:07;;;;;;;;;;;;;;;;;;5028082;28;5234;-60
2022/11/13 12:48:33;;;;;;;;;;;;;;;;;;5032754;28;5022;-62
2022/11/13 12:51:03;;;;;;;;;;;;;;;;;;5047564;28;4730;-55
2022/11/13 12:53:29;;;;;;;;;;;;;;;;;;5046334;28;5068;-61
2022/11/13 12:55:58;;;;;;;;;;;;;;;;;;5040722;28;5065;-61
2022/11/13 12:58:24;;;;;;;;;;;;;;;;;;5047163;28;1577;-60
2022/11/13 13:00:59;;;;;;;;;;;;;;;;;;5045167;28;5010;-55
2022/11/13 13:03:54;;;;;;;;;;;;;;;;;;5048881;28;4625;-60
2022/11/13 13:06:34;;;;;;;;;;;;;;;;;;5024952;28;5104;-60
2022/11/13 13:09:15;;;;;;;;;;;;;;;;;;5040079;28;4892;-57
2022/11/13 13:11:40;;;;;;;;;;;;;;;;;;5038026;28;5027;-58
2022/11/13 13:14:22;;;;;;;;;;;;;;;;;;5045126;28;5104;-59
2022/11/13 13:16:47;;;;;;;;;;;;;;;;;;5045338;28;4982;-59
2022/11/13 13:19:24;;;;;;;;;;;;;;;;;;5046922;28;1658;-60
2022/11/13 13:21:50;;;;;;;;;;;;;;;;;;5049690;28;4975;-60
2022/11/13 13:24:28;;;;;;;;;;;;;;;;;;5046304;28;5184;-62
2022/11/13 13:26:53;;;;;;;;;;;;;;;;;;5037888;28;4500;-62
2022/11/13 13:29:25;;;;;;;;;;;;;;;;;;5043516;28;5060;-66
2022/11/13 13:31:50;;;;;;;;;;;;;;;;;;5047974;28;4971;-64
2022/11/13 13:34:15;;;;;;;;;;;;;;;;;;5042789;28;1963;-66
2022/11/13 13:36:59;;;;;;;;;;;;;;;;;;5048085;28;4694;-66
2022/11/13 13:39:31;;;;;;;;;;;;;;;;;;5047454;28;4641;-61
2022/11/13 13:42:11;;;;;;;;;;;;;;;;;;5044604;28;5627;-60
2022/11/13 13:44:44;;;;;;;;;;;;;;;;;;5035963;28;5025;-61
2022/11/13 13:47:23;;;;;;;;;;;;;;;;;;5030208;28;4613;-63
2022/11/13 13:49:48;;;;;;;;;;;;;;;;;;5029769;28;4619;-63
2022/11/13 13:52:14;;;;;;;;;;;;;;;;;;5035323;28;2010;-61
2022/11/13 13:54:39;;;;;;;;;;;;;;;;;;5043172;28;4490;-61
2022/11/13 13:57:08;;;;;;;;;;;;;;;;;;5048914;28;5308;-64
2022/11/13 13:59:34;;;;;;;;;;;;;;;;;;5047867;28;5165;-63
2022/11/13 14:02:01;;;;;;;;;;;;;;;;;;5049223;28;4992;-63
2022/11/13 14:04:27;;;;;;;;;;;;;;;;;;5049257;28;1561;-64
2022/11/13 14:06:53;;;;;;;;;;;;;;;;;;5048850;28;4902;-63
2022/11/13 14:09:19;;;;;;;;;;;;;;;;;;5050641;28;4548;-62
2022/11/13 14:11:46;;;;;;;;;;;;;;;;;;5033984;28;5273;-64
2022/11/13 14:14:15;;;;;;;;;;;;;;;;;;5037201;28;4889;-63
2022/11/13 14:16:50;;;;;;;;;;;;;;;;;;5020743;28;4622;-64
2022/11/13 14:19:16;;;;;;;;;;;;;;;;;;5044870;28;1640;-63
2022/11/13 14:21:42;;;;;;;;;;;;;;;;;;5049126;28;5202;-63
2022/11/13 14:24:15;;;;;;;;;;;;;;;;;;5044429;28;4940;-63
2022/11/13 14:26:41;;;;;;;;;;;;;;;;;;5041614;28;4954;-63
2022/11/13 14:29:10;;;;;;;;;;;;;;;;;;5039393;28;4474;-62
2022/11/13 14:31:35;;;;;;;;;;;;;;;;;;5045063;28;5003;-63
2022/11/13 14:34:10;;;;;;;;;;;;;;;;;;5047170;28;2462;-61
2022/11/13 14:36:36;;;;;;;;;;;;;;;;;;5047933;28;4994;-59
2022/11/13 14:39:01;;;;;;;;;;;;;;;;;;5045574;28;4839;-58
2022/11/13 14:41:35;;;;;;;;;;;;;;;;;;5046592;28;5247;-62
2022/11/13 14:44:01;;;;;;;;;;;;;;;;;;5033800;28;4485;-61
2022/11/13 14:46:30;;;;;;;;;;;;;;;;;;5049854;28;1914;-60
2022/11/13 14:48:55;;;;;;;;;;;;;;;;;;5044711;28;4438;-62
2022/11/13 14:51:21;;;;;;;;;;;;;;;;;;5046874;28;4759;-60
2022/11/13 14:53:54;;;;;;;;;;;;;;;;;;5041621;28;5189;-56
2022/11/13 14:56:19;;;;;;;;;;;;;;;;;;5036137;28;5064;-57
2022/11/13 14:58:48;;;;;;;;;;;;;;;;;;5036816;28;1800;-58
2022/11/13 15:01:17;;;;;;;;;;;;;;;;;;5049769;28;4440;-58
2022/11/13 15:03:46;;;;;;;;;;;;;;;;;;5045790;28;4431;-57
2022/11/13 15:06:13;;;;;;;;;;;;;;;;;;5041043;28;4529;-60
2022/11/13 15:08:38;;;;;;;;;;;;;;;;;;5043192;28;4879;-57
2022/11/13 15:11:03;;;;;;;;;;;;;;;;;;5044653;28;1754;-60
2022/11/13 15:13:28;;;;;;;;;;;;;;;;;;5045471;28;4955;-57
2022/11/13 15:15:54;;;;;;;;;;;;;;;;;;5042491;28;4741;-61
2022/11/13 15:18:19;;;;;;;;;;;;;;;;;;5025102;28;4727;-62
2022/11/13 15:20:44;;;;;;;;;;;;;;;;;;5042274;28;1823;-59
2022/11/13 15:23:11;;;;;;;;;;;;;;;;;;5047701;28;5041;-57
2022/11/13 15:26:08;;;;;;;;;;;;;;;;;;5041630;28;4747;-58
2022/11/13 15:28:34;;;;;;;;;;;;;;;;;;5043741;28;4562;-62
2022/11/13 15:30:59;;;;;;;;;;;;;;;;;;5038896;28;4507;-61
2022/11/13 15:33:24;;;;;;;;;;;;;;;;;;5041358;28;1556;-63
2022/11/13 15:35:50;;;;;;;;;;;;;;;;;;5037866;28;4578;-62
2022/11/13 15:38:15;;;;;;;;;;;;;;;;;;5038568;28;4752;-65
2022/11/13 15:40:40;;;;;;;;;;;;;;;;;;5029127;28;1315;-63
2022/11/13 20:04:44;;;;;;;;;;;;;;;;;;5072620;27;5243;-62
2022/11/13 20:07:10;;;;;;;;;;;;;;;;;;5045559;28;4987;-63
2022/11/13 20:09:35;;;;;;;;;;;;;;;;;;5046930;28;1281;-63
2022/11/13 20:12:01;;;;;;;;;;;;;;;;;;5044330;28;4565;-62
2022/11/13 20:14:26;;;;;;;;;;;;;;;;;;5042814;28;5236;-62
2022/11/13 20:16:51;;;;;;;;;;;;;;;;;;5045632;28;5063;-62
2022/11/13 20:19:17;;;;;;;;;;;;;;;;;;5046601;28;4960;-63
2022/11/13 20:21:42;;;;;;;;;;;;;;;;;;5046218;28;1393;-63
2022/11/13 20:24:07;;;;;;;;;;;;;;;;;;5045533;28;4588;-63
2022/11/13 20:26:33;;;;;;;;;;;;;;;;;;5061376;28;5287;-63
2022/11/13 20:28:58;;;;;;;;;;;;;;;;;;5046166;28;4928;-63
2022/11/13 20:31:23;;;;;;;;;;;;;;;;;;5045775;28;5120;-63
2022/11/13 20:33:49;;;;;;;;;;;;;;;;;;5046501;28;1902;-63
2022/11/13 20:36:15;;;;;;;;;;;;;;;;;;5044526;28;4589;-63
2022/11/13 20:38:42;;;;;;;;;;;;;;;;;;5045944;28;4446;-63
2022/11/13 20:41:09;;;;;;;;;;;;;;;;;;5044490;28;4912;-63
2022/11/13 20:43:34;;;;;;;;;;;;;;;;;;5043393;28;4527;-63
2022/11/13 20:46:03;;;;;;;;;;;;;;;;;;5038704;28;5233;-63
2022/11/13 20:48:28;;;;;;;;;;;;;;;;;;5046152;28;6762;-63
2022/11/13 20:50:53;;;;;;;;;;;;;;;;;;5045638;28;4509;-62
2022/11/13 20:53:18;;;;;;;;;;;;;;;;;;5047948;28;5038;-62
2022/11/13 20:55:44;;;;;;;;;;;;;;;;;;5053310;28;5221;-62
2022/11/13 20:58:09;;;;;;;;;;;;;;;;;;5051906;28;4469;-64
2022/11/13 21:00:34;;;;;;;;;;;;;;;;;;5040898;28;2178;-62
2022/11/13 21:02:59;;;;;;;;;;;;;;;;;;5042974;28;4492;-62
2022/11/13 21:05:25;;;;;;;;;;;;;;;;;;5032945;28;5061;-62
2022/11/13 21:07:50;;;;;;;;;;;;;;;;;;5041533;28;5147;-61
2022/11/13 21:10:16;;;;;;;;;;;;;;;;;;5030580;28;5165;-61
2022/11/13 21:12:41;;;;;;;;;;;;;;;;;;5032040;28;1973;-60
2022/11/13 21:15:06;;;;;;;;;;;;;;;;;;5007842;28;4433;-59
2022/11/13 21:17:32;;;;;;;;;;;;;;;;;;5023973;28;5025;-60
2022/11/13 21:19:57;;;;;;;;;;;;;;;;;;5022797;28;5061;-63
2022/11/13 21:22:22;;;;;;;;;;;;;;;;;;5028331;28;4712;-63
2022/11/13 21:24:47;;;;;;;;;;;;;;;;;;5032953;28;1541;-63
2022/11/13 21:27:13;;;;;;;;;;;;;;;;;;5015661;28;4918;-62
2022/11/13 21:29:38;;;;;;;;;;;;;;;;;;5021938;28;4739;-63